Time;durP1;ratioP1;P1;durP2;ratioP2;P2;SDS_P1;SDS_P2;PMS_P1;PMS_P2;Temp;Humidity;BMP_temperature;BMP_pressure;BME280_temperature;BME280_humidity;BME280_pressure;Samples;Min_cycle;Max_cycle;Signal;HPM_P1;HPM_P2
2022/01/07 00:01:24;;;;;;;13.90;7.25;;;;;;;;;;5006302;28;20038;-68
2022/01/07 00:03:51;;;;;;;17.77;6.70;;;;;;;;;;5009112;28;20029;-68
2022/01/07 00:06:17;;;;;;;22.58;7.03;;;;;;;;;;5007059;28;20021;-69
2022/01/07 00:08:43;;;;;;;19.90;8.68;;;;;;;;;;5005964;28;20046;-68
2022/01/07 00:11:10;;;;;;;17.67;7.55;;;;;;;;;;5008287;28;20030;-69
2022/01/07 00:13:36;;;;;;;27.55;7.47;;;;;;;;;;5006315;28;21160;-69
2022/01/07 00:16:04;;;;;;;18.98;7.25;;;;;;;;;;5006959;28;20037;-68
2022/01/07 00:18:30;;;;;;;21.55;7.85;;;;;;;;;;4984340;28;20315;-68
2022/01/07 00:20:56;;;;;;;23.13;9.25;;;;;;;;;;5006116;28;20018;-67
2022/01/07 00:23:22;;;;;;;18.77;8.38;;;;;;;;;;5007910;28;20030;-67
2022/01/07 00:25:49;;;;;;;22.50;8.50;;;;;;;;;;5005932;28;20036;-68
2022/01/07 00:28:15;;;;;;;20.17;8.48;;;;;;;;;;5005827;28;20054;-68
2022/01/07 00:30:42;;;;;;;19.58;8.82;;;;;;;;;;5005532;28;20097;-68
2022/01/07 00:33:08;;;;;;;25.60;8.77;;;;;;;;;;5005014;28;20030;-68
2022/01/07 00:35:34;;;;;;;19.27;9.23;;;;;;;;;;5005684;28;20305;-67
2022/01/07 00:38:00;;;;;;;20.17;8.60;;;;;;;;;;5007317;28;20076;-68
2022/01/07 00:40:27;;;;;;;22.52;9.82;;;;;;;;;;5007506;28;20106;-69
2022/01/07 00:42:53;;;;;;;23.05;8.00;;;;;;;;;;5008288;28;20052;-68
2022/01/07 00:45:20;;;;;;;28.85;8.50;;;;;;;;;;5006697;28;20038;-69
2022/01/07 00:47:46;;;;;;;18.73;8.82;;;;;;;;;;5006413;28;20093;-68
2022/01/07 00:50:13;;;;;;;20.27;7.93;;;;;;;;;;5007334;28;20127;-67
2022/01/07 00:52:39;;;;;;;21.13;8.13;;;;;;;;;;5007895;28;20100;-69
2022/01/07 00:55:05;;;;;;;18.02;7.78;;;;;;;;;;4987911;28;20045;-67
2022/01/07 00:57:31;;;;;;;14.73;7.15;;;;;;;;;;5008332;28;20409;-67
2022/01/07 00:59:57;;;;;;;34.17;10.23;;;;;;;;;;5007342;28;20144;-68
2022/01/07 01:02:23;;;;;;;19.33;7.57;;;;;;;;;;5004535;28;20042;-67
2022/01/07 01:04:49;;;;;;;24.45;8.38;;;;;;;;;;5006219;28;20113;-68
2022/01/07 01:07:16;;;;;;;21.13;7.45;;;;;;;;;;5007818;28;20121;-68
2022/01/07 01:09:43;;;;;;;19.13;7.68;;;;;;;;;;5006178;28;20042;-68
2022/01/07 01:12:10;;;;;;;15.13;7.18;;;;;;;;;;5007802;28;20083;-66
2022/01/07 01:14:36;;;;;;;21.35;8.55;;;;;;;;;;5006377;28;20030;-68
2022/01/07 01:17:02;;;;;;;17.73;7.95;;;;;;;;;;5006602;28;20033;-68
2022/01/07 01:19:28;;;;;;;24.70;6.80;;;;;;;;;;5005537;28;20036;-67
2022/01/07 01:21:54;;;;;;;26.67;8.77;;;;;;;;;;5006483;28;20018;-67
2022/01/07 01:24:21;;;;;;;24.63;7.82;;;;;;;;;;5005147;28;20121;-67
2022/01/07 01:26:47;;;;;;;17.15;7.78;;;;;;;;;;5005437;28;20262;-68
2022/01/07 01:29:13;;;;;;;21.83;8.73;;;;;;;;;;5005576;28;20511;-68
2022/01/07 01:31:39;;;;;;;26.85;8.93;;;;;;;;;;5006139;28;20034;-69
2022/01/07 01:34:05;;;;;;;24.88;9.93;;;;;;;;;;5005803;28;20037;-67
2022/01/07 01:36:31;;;;;;;22.48;9.15;;;;;;;;;;5005824;28;20495;-68
2022/01/07 01:38:57;;;;;;;28.77;9.35;;;;;;;;;;5007899;28;20026;-67
2022/01/07 01:41:23;;;;;;;22.75;9.43;;;;;;;;;;5009771;28;20018;-67
2022/01/07 01:43:50;;;;;;;26.88;9.23;;;;;;;;;;5007761;28;20057;-68
2022/01/07 01:46:17;;;;;;;26.50;10.27;;;;;;;;;;5009996;28;20044;-68
2022/01/07 01:48:43;;;;;;;26.88;11.95;;;;;;;;;;5009960;28;20038;-68
2022/01/07 01:51:09;;;;;;;26.13;10.35;;;;;;;;;;5010622;28;20049;-67
2022/01/07 01:53:36;;;;;;;25.75;11.55;;;;;;;;;;5010714;28;20040;-69
2022/01/07 01:56:02;;;;;;;34.00;12.32;;;;;;;;;;5010499;28;20034;-69
2022/01/07 01:58:28;;;;;;;31.27;11.57;;;;;;;;;;4987708;28;20085;-69
2022/01/07 02:00:54;;;;;;;30.58;13.18;;;;;;;;;;5005620;28;20045;-68
2022/01/07 02:03:20;;;;;;;29.85;13.50;;;;;;;;;;5010142;28;20033;-68
2022/01/07 02:05:48;;;;;;;31.33;12.55;;;;;;;;;;5011334;28;20375;-69
2022/01/07 02:08:14;;;;;;;31.92;13.18;;;;;;;;;;5002342;28;20037;-68
2022/01/07 02:10:41;;;;;;;34.55;14.13;;;;;;;;;;5012357;28;20026;-69
2022/01/07 02:13:07;;;;;;;27.25;13.15;;;;;;;;;;5010811;28;20472;-68
2022/01/07 02:15:33;;;;;;;24.10;12.75;;;;;;;;;;5012066;28;20038;-69
2022/01/07 02:17:59;;;;;;;31.88;13.57;;;;;;;;;;5012729;28;20045;-67
2022/01/07 02:20:28;;;;;;;31.73;14.35;;;;;;;;;;5010540;28;20033;-70
2022/01/07 02:22:54;;;;;;;31.63;13.40;;;;;;;;;;5010870;28;20064;-68
2022/01/07 02:25:21;;;;;;;31.55;13.65;;;;;;;;;;5011376;28;20041;-68
2022/01/07 02:27:47;;;;;;;30.35;13.73;;;;;;;;;;5011223;28;20037;-68
2022/01/07 02:30:21;;;;;;;31.85;13.45;;;;;;;;;;4989286;28;20173;-69
2022/01/07 02:32:47;;;;;;;24.48;12.48;;;;;;;;;;4998691;28;20038;-69
2022/01/07 02:35:14;;;;;;;24.15;12.52;;;;;;;;;;5011029;28;20052;-68
2022/01/07 02:37:40;;;;;;;29.75;13.63;;;;;;;;;;4987515;28;20125;-68
2022/01/07 02:40:07;;;;;;;27.80;12.75;;;;;;;;;;5009478;28;20022;-68
2022/01/07 02:42:33;;;;;;;28.15;12.70;;;;;;;;;;4998938;28;20041;-67
2022/01/07 02:44:59;;;;;;;24.60;12.45;;;;;;;;;;5009855;28;20029;-68
2022/01/07 02:47:30;;;;;;;26.15;11.05;;;;;;;;;;5011547;28;20033;-68
2022/01/07 02:50:04;;;;;;;24.88;11.82;;;;;;;;;;5009194;28;20030;-69
2022/01/07 02:52:30;;;;;;;23.85;11.40;;;;;;;;;;5009826;28;20554;-67
2022/01/07 02:54:56;;;;;;;24.65;12.35;;;;;;;;;;5010313;28;20549;-68
2022/01/07 02:57:22;;;;;;;31.05;13.77;;;;;;;;;;5009414;28;20180;-69
2022/01/07 02:59:48;;;;;;;19.92;11.07;;;;;;;;;;5008239;28;20021;-70
2022/01/07 03:02:14;;;;;;;23.08;12.82;;;;;;;;;;5011487;28;20037;-69
2022/01/07 03:04:40;;;;;;;20.05;12.35;;;;;;;;;;4993341;28;20037;-69
2022/01/07 03:07:06;;;;;;;30.20;13.02;;;;;;;;;;5009662;28;20415;-68
2022/01/07 03:09:32;;;;;;;31.27;12.73;;;;;;;;;;5009554;28;20026;-67
2022/01/07 03:11:58;;;;;;;24.35;13.05;;;;;;;;;;5010521;28;20474;-66
2022/01/07 03:14:25;;;;;;;22.77;14.20;;;;;;;;;;5011113;28;20049;-69
2022/01/07 03:16:51;;;;;;;28.95;13.25;;;;;;;;;;5010880;28;20096;-69
2022/01/07 03:19:17;;;;;;;26.90;14.23;;;;;;;;;;5009757;28;20022;-68
2022/01/07 03:21:43;;;;;;;24.75;14.00;;;;;;;;;;5009447;28;20033;-69
2022/01/07 03:24:09;;;;;;;33.05;14.60;;;;;;;;;;5010416;28;20034;-69
2022/01/07 03:26:35;;;;;;;23.77;15.10;;;;;;;;;;5011436;28;20038;-70
2022/01/07 03:29:01;;;;;;;27.00;15.63;;;;;;;;;;4987259;28;20033;-68
2022/01/07 03:31:27;;;;;;;23.33;14.95;;;;;;;;;;4980798;28;20041;-68
2022/01/07 03:33:53;;;;;;;27.88;14.55;;;;;;;;;;5011257;28;20033;-69
2022/01/07 03:36:19;;;;;;;22.02;15.13;;;;;;;;;;5009533;28;20077;-69
2022/01/07 03:38:45;;;;;;;25.90;15.73;;;;;;;;;;5010149;28;20041;-68
2022/01/07 03:41:11;;;;;;;22.45;14.25;;;;;;;;;;5010850;28;20034;-67
2022/01/07 03:43:37;;;;;;;27.20;16.45;;;;;;;;;;5009932;28;20485;-67
2022/01/07 03:46:03;;;;;;;21.85;14.82;;;;;;;;;;5004861;28;20065;-68
2022/01/07 03:48:29;;;;;;;27.42;16.75;;;;;;;;;;4988849;28;20081;-68
2022/01/07 03:50:55;;;;;;;25.88;16.50;;;;;;;;;;5007579;28;20058;-69
2022/01/07 03:53:24;;;;;;;26.38;17.73;;;;;;;;;;5009944;28;20056;-68
2022/01/07 03:55:51;;;;;;;25.23;17.50;;;;;;;;;;5010036;28;20026;-68
2022/01/07 03:58:17;;;;;;;27.10;17.45;;;;;;;;;;5009508;28;20026;-67
2022/01/07 04:00:43;;;;;;;25.98;18.00;;;;;;;;;;5007246;28;20045;-69
2022/01/07 04:03:13;;;;;;;26.92;18.67;;;;;;;;;;5009667;28;20029;-67
2022/01/07 04:05:39;;;;;;;27.35;17.73;;;;;;;;;;5008767;28;20037;-67
2022/01/07 04:08:06;;;;;;;26.08;19.02;;;;;;;;;;5009339;28;20033;-67
2022/01/07 04:10:32;;;;;;;31.38;18.73;;;;;;;;;;5009157;28;20069;-67
2022/01/07 04:12:58;;;;;;;28.50;18.08;;;;;;;;;;5009503;28;20030;-67
2022/01/07 04:15:24;;;;;;;31.90;19.45;;;;;;;;;;5008516;28;20099;-67
2022/01/07 04:17:51;;;;;;;28.88;19.73;;;;;;;;;;5010410;28;20084;-68
2022/01/07 04:20:19;;;;;;;29.58;18.30;;;;;;;;;;5007736;28;20053;-68
2022/01/07 04:22:45;;;;;;;30.13;19.95;;;;;;;;;;5007624;28;20083;-67
2022/01/07 04:25:17;;;;;;;36.88;20.15;;;;;;;;;;5007955;28;20121;-68
2022/01/07 04:27:43;;;;;;;29.60;20.80;;;;;;;;;;4984721;28;20088;-68
2022/01/07 04:30:11;;;;;;;31.10;20.58;;;;;;;;;;5009772;28;20103;-69
2022/01/07 04:32:37;;;;;;;33.38;21.77;;;;;;;;;;5009761;28;20520;-67
2022/01/07 04:35:04;;;;;;;31.88;22.50;;;;;;;;;;5008977;28;20029;-68
2022/01/07 04:37:30;;;;;;;29.92;21.20;;;;;;;;;;4992150;28;20164;-68
2022/01/07 04:39:56;;;;;;;35.10;22.88;;;;;;;;;;4987062;28;20117;-68
2022/01/07 04:42:22;;;;;;;33.20;23.30;;;;;;;;;;5009268;28;20034;-68
2022/01/07 04:44:48;;;;;;;37.05;22.55;;;;;;;;;;5006842;28;20111;-69
2022/01/07 04:47:14;;;;;;;34.38;23.73;;;;;;;;;;5009928;28;20026;-68
2022/01/07 04:49:40;;;;;;;34.97;24.35;;;;;;;;;;4987770;28;20034;-68
2022/01/07 04:52:06;;;;;;;36.28;23.95;;;;;;;;;;5009826;28;20112;-68
2022/01/07 04:54:33;;;;;;;38.38;24.38;;;;;;;;;;5009062;28;20119;-69
2022/01/07 04:56:59;;;;;;;37.03;25.40;;;;;;;;;;5009109;28;20555;-67
2022/01/07 04:59:25;;;;;;;39.55;25.75;;;;;;;;;;5008957;28;20037;-67
2022/01/07 05:01:54;;;;;;;36.20;25.67;;;;;;;;;;5009621;28;20104;-67
2022/01/07 05:04:20;;;;;;;38.42;25.67;;;;;;;;;;5009256;28;20050;-68
2022/01/07 05:06:47;;;;;;;40.42;24.83;;;;;;;;;;5008894;28;20065;-68
2022/01/07 05:09:16;;;;;;;34.70;25.35;;;;;;;;;;4984048;28;20499;-68
2022/01/07 05:11:42;;;;;;;39.20;26.02;;;;;;;;;;5006260;28;20561;-68
2022/01/07 05:14:08;;;;;;;43.45;28.58;;;;;;;;;;5012381;28;20096;-67
2022/01/07 05:16:34;;;;;;;43.42;28.27;;;;;;;;;;4978176;28;20086;-67
2022/01/07 05:19:00;;;;;;;40.42;26.55;;;;;;;;;;5012315;28;20484;-67
2022/01/07 05:21:26;;;;;;;46.20;28.15;;;;;;;;;;5011531;28;20026;-67
2022/01/07 05:23:52;;;;;;;41.75;27.10;;;;;;;;;;5012325;28;20038;-67
2022/01/07 05:26:18;;;;;;;44.95;27.92;;;;;;;;;;5008881;28;20172;-68
2022/01/07 05:28:44;;;;;;;43.60;28.48;;;;;;;;;;5011538;28;20029;-67
2022/01/07 05:31:11;;;;;;;43.47;28.83;;;;;;;;;;5009867;28;20136;-67
2022/01/07 05:33:37;;;;;;;41.42;28.63;;;;;;;;;;5009523;28;20022;-67
2022/01/07 05:36:03;;;;;;;45.47;28.20;;;;;;;;;;5012468;28;20092;-67
2022/01/07 05:38:29;;;;;;;45.92;27.98;;;;;;;;;;5010127;28;20030;-67
2022/01/07 05:40:55;;;;;;;43.50;29.10;;;;;;;;;;5012360;28;20029;-67
2022/01/07 05:43:21;;;;;;;45.90;28.25;;;;;;;;;;5012446;28;20038;-67
2022/01/07 05:45:47;;;;;;;42.17;26.60;;;;;;;;;;5011296;28;20041;-67
2022/01/07 05:48:13;;;;;;;53.30;29.08;;;;;;;;;;5012698;28;20077;-67
2022/01/07 05:50:40;;;;;;;51.70;27.90;;;;;;;;;;5011865;28;20132;-68
2022/01/07 05:53:06;;;;;;;39.55;26.77;;;;;;;;;;5010777;28;20030;-68
2022/01/07 05:55:32;;;;;;;45.28;28.38;;;;;;;;;;5010828;28;20438;-67
2022/01/07 05:57:58;;;;;;;40.53;26.17;;;;;;;;;;5011294;28;20037;-68
2022/01/07 06:00:24;;;;;;;42.13;27.40;;;;;;;;;;5006666;28;20092;-67
2022/01/07 06:02:50;;;;;;;48.35;26.52;;;;;;;;;;5012311;28;20034;-68
2022/01/07 06:05:16;;;;;;;43.20;28.27;;;;;;;;;;5012324;28;20032;-69
2022/01/07 06:07:42;;;;;;;39.13;25.50;;;;;;;;;;5012718;28;20068;-69
2022/01/07 06:10:09;;;;;;;39.70;25.65;;;;;;;;;;5011031;28;20054;-68
2022/01/07 06:12:35;;;;;;;40.72;25.70;;;;;;;;;;5012853;28;20034;-68
2022/01/07 06:15:01;;;;;;;40.83;24.67;;;;;;;;;;5012030;28;20111;-68
2022/01/07 06:17:27;;;;;;;39.92;25.77;;;;;;;;;;4993788;28;20117;-69
2022/01/07 06:19:53;;;;;;;44.78;26.10;;;;;;;;;;5010864;28;20126;-69
2022/01/07 06:22:19;;;;;;;37.58;25.42;;;;;;;;;;5010054;28;20037;-68
2022/01/07 06:24:45;;;;;;;46.83;25.75;;;;;;;;;;5009300;28;20030;-68
2022/01/07 06:27:11;;;;;;;43.42;25.35;;;;;;;;;;5010005;28;20068;-68
2022/01/07 06:29:38;;;;;;;40.70;25.27;;;;;;;;;;5009723;28;20408;-68
2022/01/07 06:32:04;;;;;;;43.80;25.42;;;;;;;;;;5010534;28;20101;-67
2022/01/07 06:34:30;;;;;;;44.40;26.50;;;;;;;;;;4988936;28;20564;-68
2022/01/07 06:36:58;;;;;;;46.80;25.27;;;;;;;;;;5010847;28;20033;-68
2022/01/07 06:39:24;;;;;;;41.45;25.45;;;;;;;;;;5010605;28;20038;-69
2022/01/07 06:41:51;;;;;;;41.67;25.85;;;;;;;;;;5010529;28;20033;-68
2022/01/07 06:44:17;;;;;;;44.08;25.52;;;;;;;;;;5009794;28;20178;-67
2022/01/07 06:46:43;;;;;;;44.67;26.30;;;;;;;;;;5011445;28;20044;-68
2022/01/07 06:49:09;;;;;;;47.85;26.42;;;;;;;;;;5011041;28;20026;-67
2022/01/07 06:51:35;;;;;;;55.50;27.40;;;;;;;;;;5009696;28;20050;-68
2022/01/07 06:54:01;;;;;;;43.15;24.17;;;;;;;;;;5009965;28;20170;-67
2022/01/07 06:56:28;;;;;;;45.10;25.38;;;;;;;;;;5010277;28;20037;-68
2022/01/07 06:58:55;;;;;;;41.10;25.85;;;;;;;;;;5009696;28;20076;-68
2022/01/07 07:01:21;;;;;;;47.63;26.17;;;;;;;;;;5011053;28;20111;-68
2022/01/07 07:03:47;;;;;;;41.95;24.20;;;;;;;;;;5010841;28;20629;-68
2022/01/07 07:06:14;;;;;;;45.08;25.83;;;;;;;;;;5011509;28;20038;-68
2022/01/07 07:08:40;;;;;;;54.15;25.45;;;;;;;;;;4999256;28;20056;-68
2022/01/07 07:11:06;;;;;;;49.72;25.05;;;;;;;;;;5010883;28;20105;-68
2022/01/07 07:13:32;;;;;;;43.78;24.60;;;;;;;;;;5010294;28;20036;-68
2022/01/07 07:15:58;;;;;;;40.08;24.15;;;;;;;;;;5008335;28;20058;-68
2022/01/07 07:18:25;;;;;;;41.95;22.65;;;;;;;;;;5011436;28;20029;-68
2022/01/07 07:20:51;;;;;;;38.63;24.35;;;;;;;;;;5010242;28;20033;-68
2022/01/07 07:23:16;;;;;;;43.50;22.48;;;;;;;;;;4988598;28;20096;-68
2022/01/07 07:25:42;;;;;;;39.33;22.25;;;;;;;;;;5008760;28;20041;-68
2022/01/07 07:28:09;;;;;;;41.58;22.52;;;;;;;;;;5008873;28;20038;-68
2022/01/07 07:30:39;;;;;;;45.67;24.00;;;;;;;;;;5007152;28;20037;-69
2022/01/07 07:33:56;;;;;;;43.97;22.77;;;;;;;;;;5008502;28;20034;-67
2022/01/07 07:39:01;;;;;;;50.35;26.02;;;;;;;;;;4949880;29;20110;-68
2022/01/07 07:41:30;;;;;;;44.00;23.88;;;;;;;;;;4949801;28;20035;-68
2022/01/07 07:43:57;;;;;;;41.17;23.40;;;;;;;;;;4982477;28;20042;-67
2022/01/07 07:46:23;;;;;;;42.10;25.10;;;;;;;;;;5007881;28;20041;-68
2022/01/07 07:48:51;;;;;;;46.58;25.33;;;;;;;;;;5004844;28;20037;-69
2022/01/07 07:51:17;;;;;;;47.60;25.48;;;;;;;;;;5007265;28;20033;-68
2022/01/07 07:53:43;;;;;;;49.47;27.85;;;;;;;;;;5008059;28;20444;-68
2022/01/07 07:56:11;;;;;;;44.17;25.95;;;;;;;;;;5007725;28;20261;-68
2022/01/07 07:58:37;;;;;;;44.45;26.48;;;;;;;;;;4991846;28;20495;-68
2022/01/07 08:01:03;;;;;;;45.33;26.05;;;;;;;;;;5009270;28;20479;-69
2022/01/07 08:03:29;;;;;;;48.75;25.92;;;;;;;;;;5006226;28;20467;-69
2022/01/07 08:05:55;;;;;;;43.67;25.35;;;;;;;;;;5004925;28;20034;-68
2022/01/07 08:08:21;;;;;;;40.38;24.10;;;;;;;;;;5007455;28;20497;-68
2022/01/07 08:10:54;;;;;;;47.45;24.58;;;;;;;;;;5007527;28;20033;-68
2022/01/07 08:15:58;;;;;;;45.08;22.58;;;;;;;;;;5007343;28;20100;-68
2022/01/07 08:18:24;;;;;;;37.33;21.45;;;;;;;;;;5006892;28;20036;-67
2022/01/07 08:20:51;;;;;;;39.17;20.48;;;;;;;;;;5008324;28;20099;-68
2022/01/07 08:23:18;;;;;;;36.03;19.90;;;;;;;;;;5008861;28;20066;-68
2022/01/07 08:25:44;;;;;;;33.03;18.60;;;;;;;;;;5009333;28;20356;-67
2022/01/07 08:28:11;;;;;;;32.42;17.77;;;;;;;;;;4989050;28;20084;-66
2022/01/07 08:30:58;;;;;;;32.10;16.98;;;;;;;;;;5007733;28;20014;-67
2022/01/07 08:36:08;;;;;;;34.40;18.25;;;;;;;;;;5007017;28;20080;-67
2022/01/07 08:38:34;;;;;;;31.25;17.48;;;;;;;;;;5005768;28;20096;-68
2022/01/07 08:41:00;;;;;;;31.02;19.55;;;;;;;;;;4984268;28;20057;-69
2022/01/07 08:43:26;;;;;;;31.50;19.25;;;;;;;;;;5005231;28;20112;-68
2022/01/07 08:45:52;;;;;;;40.00;19.70;;;;;;;;;;5006710;28;20443;-69
2022/01/07 08:48:18;;;;;;;33.63;19.05;;;;;;;;;;5007391;28;20048;-68
2022/01/07 08:50:44;;;;;;;37.05;18.23;;;;;;;;;;5008813;28;20096;-68
2022/01/07 08:53:11;;;;;;;30.88;16.50;;;;;;;;;;5007616;28;20041;-67
2022/01/07 08:55:37;;;;;;;33.80;17.67;;;;;;;;;;5009260;28;20030;-68
2022/01/07 08:58:03;;;;;;;32.53;16.60;;;;;;;;;;5003567;28;20053;-68
2022/01/07 09:00:30;;;;;;;32.03;15.52;;;;;;;;;;5001113;28;20029;-69
2022/01/07 09:02:57;;;;;;;35.78;15.18;;;;;;;;;;5005470;28;20034;-68
2022/01/07 09:05:23;;;;;;;32.80;15.63;;;;;;;;;;4997552;28;20762;-68
2022/01/07 09:07:49;;;;;;;30.27;15.95;;;;;;;;;;5006812;28;20018;-67
2022/01/07 09:10:15;;;;;;;30.10;14.95;;;;;;;;;;5005812;28;20034;-67
2022/01/07 09:12:41;;;;;;;27.52;14.50;;;;;;;;;;5008064;28;20045;-67
2022/01/07 09:15:08;;;;;;;26.48;13.10;;;;;;;;;;5006755;28;20057;-67
2022/01/07 09:17:35;;;;;;;28.38;12.40;;;;;;;;;;5005751;28;20034;-68
2022/01/07 09:20:01;;;;;;;25.15;14.43;;;;;;;;;;5004747;28;20045;-67
2022/01/07 09:22:27;;;;;;;28.60;13.93;;;;;;;;;;4986267;28;20113;-68
2022/01/07 09:24:53;;;;;;;29.80;13.20;;;;;;;;;;4989062;28;20467;-68
2022/01/07 09:27:19;;;;;;;26.83;13.90;;;;;;;;;;5000872;28;20027;-68
2022/01/07 09:29:46;;;;;;;23.00;12.23;;;;;;;;;;5006204;28;20030;-69
2022/01/07 09:32:12;;;;;;;25.73;12.05;;;;;;;;;;5007139;28;20041;-69
2022/01/07 09:34:38;;;;;;;27.98;12.68;;;;;;;;;;4985283;28;20135;-66
2022/01/07 09:37:05;;;;;;;22.55;11.35;;;;;;;;;;5007524;28;20033;-67
2022/01/07 09:39:32;;;;;;;26.95;11.38;;;;;;;;;;5006831;28;20119;-68
2022/01/07 09:42:01;;;;;;;21.75;12.07;;;;;;;;;;5000871;28;20510;-68
2022/01/07 09:44:28;;;;;;;21.88;10.05;;;;;;;;;;4985804;28;20495;-68
2022/01/07 09:46:54;;;;;;;24.85;10.40;;;;;;;;;;5005734;28;20036;-67
2022/01/07 09:49:20;;;;;;;22.40;11.48;;;;;;;;;;5002629;28;20124;-68
2022/01/07 09:51:46;;;;;;;22.75;10.40;;;;;;;;;;5000601;28;20065;-68
2022/01/07 09:54:12;;;;;;;26.17;10.02;;;;;;;;;;5005105;28;20056;-68
2022/01/07 09:56:39;;;;;;;15.85;9.35;;;;;;;;;;5002534;28;20030;-68
2022/01/07 09:59:07;;;;;;;34.30;11.93;;;;;;;;;;5005983;28;20026;-67
2022/01/07 10:01:51;;;;;;;25.77;11.02;;;;;;;;;;5007878;28;20045;-68
2022/01/07 10:04:27;;;;;;;24.20;11.13;;;;;;;;;;5006399;28;20025;-68
2022/01/07 10:07:11;;;;;;;24.20;10.55;;;;;;;;;;5008870;28;20439;-68
2022/01/07 10:09:38;;;;;;;23.13;11.48;;;;;;;;;;4999905;28;20037;-68
2022/01/07 10:12:06;;;;;;;27.70;12.15;;;;;;;;;;4999218;28;20470;-68
2022/01/07 10:14:32;;;;;;;23.63;10.27;;;;;;;;;;5004323;28;20526;-68
2022/01/07 10:16:59;;;;;;;21.35;9.70;;;;;;;;;;5005919;28;20033;-68
2022/01/07 10:19:32;;;;;;;27.25;9.80;;;;;;;;;;4978971;28;20800;-66
2022/01/07 10:21:59;;;;;;;21.92;9.48;;;;;;;;;;5002253;28;20060;-68
2022/01/07 10:24:25;;;;;;;24.20;8.98;;;;;;;;;;5009453;28;20026;-68
2022/01/07 10:27:13;;;;;;;23.10;9.15;;;;;;;;;;5009953;28;20054;-67
2022/01/07 10:29:44;;;;;;;23.23;10.00;;;;;;;;;;5010947;28;20048;-67
2022/01/07 10:32:27;;;;;;;19.75;9.65;;;;;;;;;;5002687;28;20038;-66
2022/01/07 10:35:09;;;;;;;24.95;9.88;;;;;;;;;;5006126;28;20068;-68
2022/01/07 10:37:36;;;;;;;22.13;9.27;;;;;;;;;;5010504;28;20524;-69
2022/01/07 10:40:18;;;;;;;19.92;8.25;;;;;;;;;;5007939;28;20099;-71
2022/01/07 10:42:45;;;;;;;18.60;8.27;;;;;;;;;;5005475;28;20056;-68
2022/01/07 10:45:11;;;;;;;24.52;9.07;;;;;;;;;;4988205;28;20026;-70
2022/01/07 10:47:37;;;;;;;20.27;8.65;;;;;;;;;;5007905;28;20407;-69
2022/01/07 10:50:13;;;;;;;20.88;7.93;;;;;;;;;;5008250;28;20116;-69
2022/01/07 10:52:40;;;;;;;22.92;8.20;;;;;;;;;;5003179;28;20604;-68
2022/01/07 10:55:10;;;;;;;17.20;7.20;;;;;;;;;;5001870;28;20088;-68
2022/01/07 10:57:46;;;;;;;16.55;7.10;;;;;;;;;;5003739;28;20034;-68
2022/01/07 11:00:13;;;;;;;20.52;7.32;;;;;;;;;;5007769;28;20022;-69
2022/01/07 11:02:40;;;;;;;15.90;6.13;;;;;;;;;;5001156;28;20462;-68
2022/01/07 11:05:07;;;;;;;25.02;6.15;;;;;;;;;;5006878;28;20030;-68
2022/01/07 11:07:33;;;;;;;15.27;5.88;;;;;;;;;;5009727;28;20100;-68
2022/01/07 11:09:59;;;;;;;18.95;5.65;;;;;;;;;;5007350;28;20069;-69
2022/01/07 11:12:25;;;;;;;13.98;6.07;;;;;;;;;;5008684;28;20060;-68
2022/01/07 11:14:52;;;;;;;16.10;7.75;;;;;;;;;;5006365;28;20366;-67
2022/01/07 11:17:21;;;;;;;18.23;7.78;;;;;;;;;;5009042;28;20057;-67
2022/01/07 11:19:59;;;;;;;17.05;8.02;;;;;;;;;;5007128;28;20025;-68
2022/01/07 11:22:25;;;;;;;24.35;8.65;;;;;;;;;;5008614;28;20064;-69
2022/01/07 11:25:04;;;;;;;19.27;8.40;;;;;;;;;;5005813;28;20392;-68
2022/01/07 11:27:30;;;;;;;16.08;7.95;;;;;;;;;;5008018;28;20112;-67
2022/01/07 11:30:02;;;;;;;20.42;7.38;;;;;;;;;;5008136;28;20029;-68
2022/01/07 11:32:29;;;;;;;20.23;7.15;;;;;;;;;;5007401;28;20065;-68
2022/01/07 11:34:56;;;;;;;18.10;6.55;;;;;;;;;;5007927;28;20041;-66
2022/01/07 11:37:39;;;;;;;15.13;6.03;;;;;;;;;;5008059;28;20108;-69
2022/01/07 11:40:05;;;;;;;16.42;5.57;;;;;;;;;;5008049;28;20290;-67
2022/01/07 11:42:41;;;;;;;19.13;6.72;;;;;;;;;;5006721;28;20128;-67
2022/01/07 11:45:40;;;;;;;18.02;4.63;;;;;;;;;;5006874;28;20103;-69
2022/01/07 11:48:14;;;;;;;25.95;5.55;;;;;;;;;;4974535;28;20038;-68
2022/01/07 11:51:08;;;;;;;17.73;4.82;;;;;;;;;;5005686;28;20030;-68
2022/01/07 11:53:41;;;;;;;22.55;5.25;;;;;;;;;;4986967;28;20291;-67
2022/01/07 11:56:16;;;;;;;19.80;4.30;;;;;;;;;;5006408;28;20041;-68
2022/01/07 11:58:46;;;;;;;21.30;5.97;;;;;;;;;;5007174;28;20064;-67
2022/01/07 12:01:27;;;;;;;13.48;3.83;;;;;;;;;;5005904;28;20041;-67
2022/01/07 12:03:53;;;;;;;22.33;4.75;;;;;;;;;;5007131;28;20071;-68
2022/01/07 12:06:26;;;;;;;16.70;4.32;;;;;;;;;;5006667;28;20034;-67
2022/01/07 12:09:11;;;;;;;17.75;4.00;;;;;;;;;;5007603;28;20626;-69
2022/01/07 12:11:38;;;;;;;14.32;3.88;;;;;;;;;;5007614;28;22049;-68
2022/01/07 12:14:10;;;;;;;21.10;4.85;;;;;;;;;;5006195;28;20482;-67
2022/01/07 12:16:35;;;;;;;;;;;;;;;;;;5006106;28;20125;-68
2022/01/07 12:19:17;;;;;;;15.35;3.40;;;;;;;;;;4990172;28;20361;-68
2022/01/07 12:21:43;;;;;;;15.20;3.33;;;;;;;;;;5004713;28;20084;-67
2022/01/07 12:24:11;;;;;;;18.67;3.40;;;;;;;;;;4998504;28;20480;-68
2022/01/07 12:26:37;;;;;;;17.98;4.13;;;;;;;;;;5007957;28;20029;-68
2022/01/07 12:29:03;;;;;;;14.90;3.33;;;;;;;;;;4991168;28;20037;-67
2022/01/07 12:31:30;;;;;;;14.43;2.63;;;;;;;;;;5006446;28;20488;-67
2022/01/07 12:33:57;;;;;;;15.30;3.10;;;;;;;;;;4986615;28;20034;-67
2022/01/07 12:36:29;;;;;;;21.45;3.30;;;;;;;;;;4977561;28;20038;-68
2022/01/07 12:38:59;;;;;;;19.80;4.30;;;;;;;;;;5006597;28;20472;-67
2022/01/07 12:41:25;;;;;;;8.52;1.40;;;;;;;;;;4999601;28;20027;-68
2022/01/07 12:44:03;;;;;;;12.20;1.67;;;;;;;;;;4989139;28;20037;-68
2022/01/07 12:46:29;;;;;;;11.02;1.73;;;;;;;;;;5006521;28;20034;-67
2022/01/07 12:48:55;;;;;;;11.40;1.73;;;;;;;;;;5002122;28;20038;-65
2022/01/07 12:51:22;;;;;;;11.55;1.98;;;;;;;;;;4992845;28;20046;-67
2022/01/07 12:53:58;;;;;;;8.80;1.58;;;;;;;;;;4996221;28;20034;-67
2022/01/07 12:56:29;;;;;;;10.85;1.88;;;;;;;;;;5006762;28;20045;-68
2022/01/07 12:58:55;;;;;;;;;;;;;;;;;;5008326;28;20030;-68
2022/01/07 13:01:25;;;;;;;9.50;2.92;;;;;;;;;;5006546;28;20007;-68
2022/01/07 13:04:11;;;;;;;19.30;3.20;;;;;;;;;;5002368;28;20105;-68
2022/01/07 13:06:43;;;;;;;10.98;2.25;;;;;;;;;;5007302;28;20098;-68
2022/01/07 13:09:10;;;;;;;15.75;3.50;;;;;;;;;;5007676;28;20026;-68
2022/01/07 13:11:36;;;;;;;18.48;3.95;;;;;;;;;;4989958;28;20041;-67
2022/01/07 13:14:06;;;;;;;9.38;2.58;;;;;;;;;;5007237;28;20152;-67
2022/01/07 13:16:32;;;;;;;12.70;3.30;;;;;;;;;;5007606;28;20042;-67
2022/01/07 13:19:03;;;;;;;7.28;2.30;;;;;;;;;;5007695;28;20088;-67
2022/01/07 13:21:30;;;;;;;13.23;3.20;;;;;;;;;;5005741;28;20029;-67
2022/01/07 13:23:57;;;;;;;13.52;2.22;;;;;;;;;;5001094;28;20029;-67
2022/01/07 13:26:23;;;;;;;14.05;2.50;;;;;;;;;;5002160;28;20097;-68
2022/01/07 13:28:50;;;;;;;10.07;2.53;;;;;;;;;;5007172;28;20561;-68
2022/01/07 13:31:18;;;;;;;11.93;2.88;;;;;;;;;;4993049;28;20041;-67
2022/01/07 13:33:45;;;;;;;12.45;2.85;;;;;;;;;;5002905;28;20243;-66
2022/01/07 13:36:12;;;;;;;9.20;1.98;;;;;;;;;;5007444;28;20037;-67
2022/01/07 13:38:39;;;;;;;11.23;2.30;;;;;;;;;;5000316;28;20025;-67
2022/01/07 13:41:17;;;;;;;11.65;2.03;;;;;;;;;;5011180;28;20168;-66
2022/01/07 13:43:48;;;;;;;7.93;2.17;;;;;;;;;;5011200;28;20061;-68
2022/01/07 13:46:22;;;;;;;9.45;2.20;;;;;;;;;;5010239;28;20038;-67
2022/01/07 13:48:49;;;;;;;9.25;2.53;;;;;;;;;;5007202;28;20133;-67
2022/01/07 13:51:16;;;;;;;7.78;1.95;;;;;;;;;;5006839;28;20084;-68
2022/01/07 13:53:42;;;;;;;9.23;2.45;;;;;;;;;;4989179;28;20409;-67
2022/01/07 13:56:10;;;;;;;9.00;2.42;;;;;;;;;;5009798;28;20022;-67
2022/01/07 13:58:36;;;;;;;12.00;2.25;;;;;;;;;;5009391;28;20051;-67
2022/01/07 14:01:06;;;;;;;9.05;2.38;;;;;;;;;;5009431;28;20037;-67
2022/01/07 14:03:49;;;;;;;8.20;2.60;;;;;;;;;;5010243;28;20026;-67
2022/01/07 14:06:19;;;;;;;12.02;2.63;;;;;;;;;;5008907;28;20285;-67
2022/01/07 14:08:45;;;;;;;14.05;2.38;;;;;;;;;;5009960;28;20430;-67
2022/01/07 14:11:12;;;;;;;13.80;3.08;;;;;;;;;;5008388;28;20049;-66
2022/01/07 14:13:38;;;;;;;10.82;2.17;;;;;;;;;;4990223;28;20129;-67
2022/01/07 14:16:04;;;;;;;11.95;2.67;;;;;;;;;;5006660;28;20081;-68
2022/01/07 14:18:33;;;;;;;7.55;1.80;;;;;;;;;;4971508;28;20034;-68
2022/01/07 14:21:02;;;;;;;13.15;3.20;;;;;;;;;;5008809;28;20509;-68
2022/01/07 14:23:32;;;;;;;11.85;2.42;;;;;;;;;;5005997;28;20041;-67
2022/01/07 14:26:05;;;;;;;10.40;2.25;;;;;;;;;;5005530;28;20551;-67
2022/01/07 14:28:32;;;;;;;11.75;2.47;;;;;;;;;;5000346;28;20503;-67
2022/01/07 14:30:58;;;;;;;12.52;2.90;;;;;;;;;;5006183;28;20029;-66
2022/01/07 14:33:24;;;;;;;8.23;2.20;;;;;;;;;;5009214;28;20088;-68
2022/01/07 14:35:51;;;;;;;5.93;2.22;;;;;;;;;;5006529;28;20033;-67